Map

Track Data

SID SEASON NUMBER BASIN SUBBASIN NAME ISO_TIME NATURE LAT LON WMO_WIND WMO_PRES WMO_AGENCY TRACK_TYPE DIST2LAND LANDFALL IFLAG USA_AGENCY USA_ATCF_ID USA_LAT USA_LON USA_RECORD USA_STATUS USA_WIND USA_PRES USA_SSHS USA_R34_NE USA_R34_SE USA_R34_SW USA_R34_NW USA_R50_NE USA_R50_SE USA_R50_SW USA_R50_NW USA_R64_NE USA_R64_SE USA_R64_SW USA_R64_NW USA_POCI USA_ROCI USA_RMW USA_EYE TOKYO_LAT TOKYO_LON TOKYO_GRADE TOKYO_WIND TOKYO_PRES TOKYO_R50_DIR TOKYO_R50_LONG TOKYO_R50_SHORT TOKYO_R30_DIR TOKYO_R30_LONG TOKYO_R30_SHORT TOKYO_LAND CMA_LAT CMA_LON CMA_CAT CMA_WIND CMA_PRES HKO_LAT HKO_LON HKO_CAT HKO_WIND HKO_PRES NEWDELHI_LAT NEWDELHI_LON NEWDELHI_GRADE NEWDELHI_WIND NEWDELHI_PRES NEWDELHI_CI NEWDELHI_DP NEWDELHI_POCI REUNION_LAT REUNION_LON REUNION_TYPE REUNION_WIND REUNION_PRES REUNION_TNUM REUNION_CI REUNION_RMW REUNION_R34_NE REUNION_R34_SE REUNION_R34_SW REUNION_R34_NW REUNION_R50_NE REUNION_R50_SE REUNION_R50_SW REUNION_R50_NW REUNION_R64_NE REUNION_R64_SE REUNION_R64_SW REUNION_R64_NW BOM_LAT BOM_LON BOM_TYPE BOM_WIND BOM_PRES BOM_TNUM BOM_CI BOM_RMW BOM_R34_NE BOM_R34_SE BOM_R34_SW BOM_R34_NW BOM_R50_NE BOM_R50_SE BOM_R50_SW BOM_R50_NW BOM_R64_NE BOM_R64_SE BOM_R64_SW BOM_R64_NW BOM_ROCI BOM_POCI BOM_EYE BOM_POS_METHOD BOM_PRES_METHOD NADI_LAT NADI_LON NADI_CAT NADI_WIND NADI_PRES WELLINGTON_LAT WELLINGTON_LON WELLINGTON_WIND WELLINGTON_PRES DS824_LAT DS824_LON DS824_STAGE DS824_WIND DS824_PRES TD9636_LAT TD9636_LON TD9636_STAGE TD9636_WIND TD9636_PRES TD9635_LAT TD9635_LON TD9635_WIND TD9635_PRES TD9635_ROCI NEUMANN_LAT NEUMANN_LON NEUMANN_CLASS NEUMANN_WIND NEUMANN_PRES MLC_LAT MLC_LON MLC_CLASS MLC_WIND MLC_PRES USA_GUST BOM_GUST BOM_GUST_PER REUNION_GUST REUNION_GUST_PER USA_SEAHGT USA_SEARAD_NE USA_SEARAD_SE USA_SEARAD_SW USA_SEARAD_NW STORM_SPEED STORM_DIR
1869222N30285 1869 9 NA NA NOT_NAMED 1869-08-09 12:00:00 TS 29.5000 -75.5000 main 498 498 _____________O -1 29.5000 -75.5000 TD 30 4 75
1869222N30285 1869 9 NA NA NOT_NAMED 1869-08-09 15:00:00 TS 29.5501 -75.2900 main 519 519 _____________P -1 29.5501 -75.2900 TD 30 4 74
1869222N30285 1869 9 NA NA NOT_NAMED 1869-08-09 18:00:00 TS 29.6000 -75.1000 main 538 538 _____________O -1 29.6000 -75.1000 TD 30 3 72
1869222N30285 1869 9 NA NA NOT_NAMED 1869-08-09 21:00:00 TS 29.6500 -74.9425 main 557 552 _____________P -1 29.6500 -74.9425 TD 32 3 69
1869222N30285 1869 9 NA NA NOT_NAMED 1869-08-10 00:00:00 TS 29.7000 -74.8000 main 557 553 _____________O -1 29.7000 -74.8000 TS 35 3 67
1869222N30285 1869 9 NA NA NOT_NAMED 1869-08-10 03:00:00 TS 29.7575 -74.6500 main 553 553 _____________P -1 29.7575 -74.6500 TS 35 3 69
1869222N30285 1869 9 NA NA NOT_NAMED 1869-08-10 06:00:00 TS 29.8000 -74.5000 main 563 563 _____________O -1 29.8000 -74.5000 TS 35 2 82
1869222N30285 1869 9 NA NA NOT_NAMED 1869-08-10 09:00:00 TS 29.7924 -74.3724 main 569 569 _____________P -1 29.7924 -74.3724 TS 35 3 90
1869222N30285 1869 9 NA NA NOT_NAMED 1869-08-10 12:00:00 TS 29.8000 -74.2000 main 580 580 _____________O -1 29.8000 -74.2000 TS 35 4 77
1869222N30285 1869 9 NA NA NOT_NAMED 1869-08-10 15:00:00 TS 29.8851 -73.9151 main 588 586 _____________P -1 29.8851 -73.9151 TS 35 6 69
1869222N30285 1869 9 NA NA NOT_NAMED 1869-08-10 18:00:00 TS 30.0000 -73.6000 main 590 584 _____________O -1 30.0000 -73.6000 TS 35 5 67
1869222N30285 1869 9 NA NA NOT_NAMED 1869-08-10 21:00:00 TS 30.0999 -73.3424 main 594 589 _____________P -1 30.0999 -73.3424 TS 37 5 65
1869222N30285 1869 9 NA NA NOT_NAMED 1869-08-11 00:00:00 TS 30.2000 -73.1000 main 594 589 _____________O -1 30.2000 -73.1000 TS 40 5 64
1869222N30285 1869 9 NA NA NOT_NAMED 1869-08-11 03:00:00 TS 30.3074 -72.8575 main 595 595 _____________P -1 30.3074 -72.8575 TS 40 5 65
1869222N30285 1869 9 NA NA NOT_NAMED 1869-08-11 06:00:00 TS 30.4000 -72.6000 main 602 602 _____________O -1 30.4000 -72.6000 TS 40 5 75
1869222N30285 1869 9 NA NA NOT_NAMED 1869-08-11 09:00:00 TS 30.4426 -72.2923 main 619 617 _____________P -1 30.4426 -72.2923 TS 40 5 79
1869222N30285 1869 9 NA NA NOT_NAMED 1869-08-11 12:00:00 TS 30.5000 -72.0000 main 629 627 _____________O -1 30.5000 -72.0000 TS 40 5 66
1869222N30285 1869 9 NA NA NOT_NAMED 1869-08-11 15:00:00 TS 30.6349 -71.7925 main 633 624 _____________P -1 30.6349 -71.7925 TS 40 5 49
1869222N30285 1869 9 NA NA NOT_NAMED 1869-08-11 18:00:00 TS 30.8000 -71.6000 main 630 630 _____________O -1 30.8000 -71.6000 TS 40 5 50
1869222N30285 1869 9 NA NA NOT_NAMED 1869-08-11 21:00:00 TS 30.9500 -71.3500 main 636 636 _____________P -1 30.9500 -71.3500 TS 42 5 55
1869222N30285 1869 9 NA NA NOT_NAMED 1869-08-12 00:00:00 TS 31.1000 -71.1000 main 643 642 _____________O -1 31.1000 -71.1000 TS 45 5 52
1869222N30285 1869 9 NA NA NOT_NAMED 1869-08-12 03:00:00 TS 31.2499 -70.8924 main 649 642 _____________P -1 31.2499 -70.8924 TS 47 5 49
1869222N30285 1869 9 NA NA NOT_NAMED 1869-08-12 06:00:00 TS 31.4000 -70.7000 main 650 650 _____________O -1 31.4000 -70.7000 TS 50 5 49
1869222N30285 1869 9 NA NA NOT_NAMED 1869-08-12 09:00:00 TS 31.5500 -70.4925 main 651 651 _____________P -1 31.5500 -70.4925 TS 50 5 49
1869222N30285 1869 9 NA NA NOT_NAMED 1869-08-12 12:00:00 TS 31.7000 -70.3000 main 660 660 _____________O -1 31.7000 -70.3000 TS 50 4 44
1869222N30285 1869 9 NA NA NOT_NAMED 1869-08-12 15:00:00 TS 31.8575 -70.1425 main 660 660 _____________P -1 31.8575 -70.1425 TS 50 4 40
1869222N30285 1869 9 NA NA NOT_NAMED 1869-08-12 18:00:00 TS 32.0000 -70.0000 main 660 659 _____________O -1 32.0000 -70.0000 TS 50 3 46
1869222N30285 1869 9 NA NA NOT_NAMED 1869-08-12 21:00:00 TS 32.1000 -69.8499 main 667 660 _____________P -1 32.1000 -69.8499 TS 50 3 52
1869222N30285 1869 9 NA NA NOT_NAMED 1869-08-13 00:00:00 TS 32.2000 -69.7000 main 667 667 _____________O -1 32.2000 -69.7000 TS 50 4 46
1869222N30285 1869 9 NA NA NOT_NAMED 1869-08-13 03:00:00 TS 32.3500 -69.5426 main 668 668 _____________P -1 32.3500 -69.5426 TS 50 4 40
1869222N30285 1869 9 NA NA NOT_NAMED 1869-08-13 06:00:00 TS 32.5000 -69.4000 main 669 669 _____________O -1 32.5000 -69.4000 TS 50 3 40
1869222N30285 1869 9 NA NA NOT_NAMED 1869-08-13 09:00:00 TS 32.6000 -69.2924 main 671 671 _____________P -1 32.6000 -69.2924 TS 50 3 40
1869222N30285 1869 9 NA NA NOT_NAMED 1869-08-13 12:00:00 TS 32.7000 -69.2000 main 673 667 _____________O -1 32.7000 -69.2000 TS 50 3 33
1869222N30285 1869 9 NA NA NOT_NAMED 1869-08-13 15:00:00 TS 32.8500 -69.1000 main 675 669 _____________P -1 32.8500 -69.1000 TS 50 3 29
1869222N30285 1869 9 NA NA NOT_NAMED 1869-08-13 18:00:00 TS 33.0000 -69.0000 main 671 671 _____________O -1 33.0000 -69.0000 TS 50 3 34
1869222N30285 1869 9 NA NA NOT_NAMED 1869-08-13 21:00:00 TS 33.1000 -68.8999 main 674 674 _____________P -1 33.1000 -68.8999 TS 47 3 40
1869222N30285 1869 9 NA NA NOT_NAMED 1869-08-14 00:00:00 TS 33.2000 -68.8000 main 677 672 _____________O -1 33.2000 -68.8000 TS 45 3 34
1869222N30285 1869 9 NA NA NOT_NAMED 1869-08-14 03:00:00 TS 33.3500 -68.7000 main 680 676 _____________P -1 33.3500 -68.7000 TS 45 3 29
1869222N30285 1869 9 NA NA NOT_NAMED 1869-08-14 06:00:00 TS 33.5000 -68.6000 main 679 679 _____________O -1 33.5000 -68.6000 TS 45 3 34
1869222N30285 1869 9 NA NA NOT_NAMED 1869-08-14 09:00:00 TS 33.6000 -68.4999 main 683 683 _____________P -1 33.6000 -68.4999 TS 42 3 40
1869222N30285 1869 9 NA NA NOT_NAMED 1869-08-14 12:00:00 TS 33.7000 -68.4000 main 688 683 _____________O -1 33.7000 -68.4000 TS 40 3 34
1869222N30285 1869 9 NA NA NOT_NAMED 1869-08-14 15:00:00 TS 33.8500 -68.3000 main 692 688 _____________P -1 33.8500 -68.3000 TS 40 3 29
1869222N30285 1869 9 NA NA NOT_NAMED 1869-08-14 18:00:00 TS 34.0000 -68.2000 main 693 690 _____________O -1 34.0000 -68.2000 TS 40 3 31
1869222N30285 1869 9 NA NA NOT_NAMED 1869-08-14 21:00:00 TS 34.1075 -68.1074 main 698 695 _____________P -1 34.1075 -68.1074 TS 40 3 40
1869222N30285 1869 9 NA NA NOT_NAMED 1869-08-15 00:00:00 TS 34.2000 -68.0000 main 704 704 _____________O -1 34.2000 -68.0000 TS 40 3 48
1869222N30285 1869 9 NA NA NOT_NAMED 1869-08-15 03:00:00 TS 34.3000 -67.8500 main 710 710 _____________P -1 34.3000 -67.8500 TS 37 3 51
1869222N30285 1869 9 NA NA NOT_NAMED 1869-08-15 06:00:00 TS 34.4000 -67.7000 main 724 724 _____________O -1 34.4000 -67.7000 TS 35 3 48
1869222N30285 1869 9 NA NA NOT_NAMED 1869-08-15 09:00:00 TS 34.5000 -67.5875 main 730 730 _____________P -1 34.5000 -67.5875 TS 35 3 40
1869222N30285 1869 9 NA NA NOT_NAMED 1869-08-15 12:00:00 TS 34.6000 -67.5000 main 737 _____________O -1 34.6000 -67.5000 TS 35 2 33

About IBTrACS Database

This database is a web-friendly format of International Best Track Archive for Climate Stewardship (IBTrACS), a global best track data archive curated by NOAA dating back to 1842.

Updated: 2021-10-21